createdAt,value
2023-05-18T00:00:59.138Z,8.60
2023-05-18T00:03:47.527Z,8.70
2023-05-18T00:06:34.806Z,8.50
2023-05-18T00:09:21.956Z,8.60
2023-05-18T00:12:10.101Z,8.50
2023-05-18T00:14:58.102Z,8.50
2023-05-18T00:17:45.884Z,8.60
2023-05-18T00:20:34.758Z,8.60
2023-05-18T00:23:23.620Z,8.70
2023-05-18T00:26:10.758Z,8.50
2023-05-18T00:28:58.129Z,8.50
2023-05-18T00:31:45.997Z,8.50
2023-05-18T00:34:33.439Z,8.60
2023-05-18T00:37:20.980Z,8.50
2023-05-18T00:40:09.242Z,8.50
2023-05-18T00:42:56.729Z,8.50
2023-05-18T00:45:43.900Z,8.50
2023-05-18T00:48:31.218Z,8.50
2023-05-18T00:51:21.180Z,8.30
2023-05-18T00:54:09.777Z,8.30
2023-05-18T00:57:08.668Z,8.30
2023-05-18T00:59:57.906Z,8.30
2023-05-18T01:02:45.505Z,8.30
2023-05-18T01:05:33.174Z,8.20
2023-05-18T01:08:20.535Z,8.20
2023-05-18T01:11:41.801Z,8.20
2023-05-18T01:15:02.478Z,8.20
2023-05-18T01:18:23.588Z,8.20
2023-05-18T01:21:43.310Z,8.20
2023-05-18T01:24:45.605Z,8.10
2023-05-18T01:27:37.682Z,8.20
2023-05-18T01:30:25.061Z,8.20
2023-05-18T01:33:13.691Z,8.20
2023-05-18T01:36:00.992Z,8.20
2023-05-18T01:38:48.557Z,8.20
2023-05-18T01:41:39.550Z,8.30
2023-05-18T01:44:36.912Z,8.30
2023-05-18T01:47:25.976Z,8.30
2023-05-18T01:50:22.607Z,8.30
2023-05-18T01:53:14.764Z,8.40
2023-05-18T01:56:05.604Z,8.40
2023-05-18T01:58:53.693Z,8.50
2023-05-18T02:01:45.284Z,8.50
2023-05-18T02:04:32.660Z,8.50
2023-05-18T02:07:19.958Z,8.40
2023-05-18T02:10:08.557Z,8.30
2023-05-18T02:12:55.760Z,8.40
2023-05-18T02:15:44.520Z,8.30
2023-05-18T02:18:34.203Z,8.30
2023-05-18T02:21:22.280Z,8.30
2023-05-18T02:24:09.774Z,8.30
2023-05-18T02:26:57.486Z,8.30
2023-05-18T02:29:44.711Z,8.20
2023-05-18T02:32:38.986Z,8.10
2023-05-18T02:35:26.304Z,8.10
2023-05-18T02:38:13.458Z,8.20
2023-05-18T02:41:00.690Z,8.10
2023-05-18T02:43:47.919Z,8.20
2023-05-18T02:46:35.135Z,8.10
2023-05-18T02:49:22.293Z,8.00
2023-05-18T02:52:09.593Z,8.00
2023-05-18T02:54:56.915Z,8.00
2023-05-18T02:57:47.307Z,8.10
2023-05-18T03:00:37.075Z,8.10
2023-05-18T03:03:25.992Z,8.00
2023-05-18T03:06:14.173Z,8.00
2023-05-18T03:09:01.331Z,8.00
2023-05-18T03:11:48.898Z,8.10
2023-05-18T03:14:36.285Z,7.90
2023-05-18T03:17:23.582Z,7.90
2023-05-18T03:20:17.641Z,7.80
2023-05-18T03:23:05.641Z,7.80
2023-05-18T03:25:54.559Z,7.90
2023-05-18T03:28:41.751Z,7.90
2023-05-18T03:31:30.372Z,8.00
2023-05-18T03:34:18.030Z,8.00
2023-05-18T03:37:05.761Z,8.00
2023-05-18T03:39:52.924Z,7.90
2023-05-18T03:42:41.219Z,7.90
2023-05-18T03:45:29.037Z,8.00
2023-05-18T03:48:16.525Z,8.00
2023-05-18T03:51:04.690Z,7.90
2023-05-18T03:53:52.344Z,8.00
2023-05-18T03:56:39.765Z,8.00
2023-05-18T03:59:27.107Z,8.00
2023-05-18T04:02:16.889Z,8.00
2023-05-18T04:05:05.485Z,8.10
2023-05-18T04:07:52.873Z,8.10
2023-05-18T04:10:43.021Z,8.10
2023-05-18T04:13:30.354Z,8.20
2023-05-18T04:16:18.481Z,8.20
2023-05-18T04:19:08.170Z,8.40
2023-05-18T04:21:56.705Z,8.30
2023-05-18T04:24:45.781Z,8.30
2023-05-18T04:27:33.387Z,8.40
2023-05-18T04:30:23.742Z,8.60
2023-05-18T04:33:11.024Z,8.40
2023-05-18T04:36:05.231Z,8.50
2023-05-18T04:38:53.007Z,8.40
2023-05-18T04:41:42.530Z,8.50
2023-05-18T04:44:30.562Z,8.60
2023-05-18T04:47:17.712Z,8.70
2023-05-18T04:50:08.589Z,8.60
2023-05-18T04:52:58.119Z,8.60
2023-05-18T04:55:46.794Z,8.60
2023-05-18T04:58:35.786Z,8.70
2023-05-18T05:01:23.154Z,8.80
2023-05-18T05:04:10.763Z,8.80
2023-05-18T05:06:57.944Z,8.80
2023-05-18T05:09:45.509Z,8.80
2023-05-18T05:12:33.060Z,8.90
2023-05-18T05:15:21.153Z,8.90
2023-05-18T05:18:08.780Z,9.10
2023-05-18T05:20:56.269Z,9.10
2023-05-18T05:23:45.524Z,9.10
2023-05-18T05:26:33.231Z,9.10
2023-05-18T05:29:20.749Z,9.10
2023-05-18T05:32:08.247Z,9.00
2023-05-18T05:34:55.698Z,9.20
2023-05-18T05:37:45.426Z,9.20
2023-05-18T05:40:36.116Z,9.30
2023-05-18T05:43:23.960Z,9.50
2023-05-18T05:46:11.366Z,9.50
2023-05-18T05:48:59.235Z,9.50
2023-05-18T05:51:47.159Z,9.40
2023-05-18T05:54:35.034Z,9.60
2023-05-18T05:57:22.218Z,9.80
2023-05-18T06:00:13.602Z,9.70
2023-05-18T06:03:01.253Z,9.70
2023-05-18T06:05:48.681Z,9.70
2023-05-18T06:08:37.568Z,9.90
2023-05-18T06:11:24.727Z,9.90
2023-05-18T06:14:14.226Z,10.10
2023-05-18T06:17:01.937Z,10.20
2023-05-18T06:19:50.256Z,10.00
2023-05-18T06:22:37.729Z,10.10
2023-05-18T06:25:25.162Z,10.30
2023-05-18T06:28:14.749Z,10.40
2023-05-18T06:31:05.064Z,10.30
2023-05-18T06:33:52.597Z,10.50
2023-05-18T06:36:39.833Z,10.30
2023-05-18T06:39:27.614Z,10.30
2023-05-18T06:42:14.909Z,10.30
2023-05-18T06:45:02.776Z,10.40
2023-05-18T06:47:50.633Z,10.50
2023-05-18T06:50:41.852Z,10.70
2023-05-18T06:53:32.316Z,10.80
2023-05-18T06:56:21.921Z,11.00
2023-05-18T06:59:09.316Z,11.10
2023-05-18T07:01:59.534Z,11.10
2023-05-18T07:04:48.926Z,11.10
2023-05-18T07:07:38.166Z,11.00
2023-05-18T07:10:25.967Z,11.20
2023-05-18T07:13:13.767Z,11.30
2023-05-18T07:16:01.260Z,11.50
2023-05-18T07:18:48.476Z,11.50
2023-05-18T07:21:35.686Z,11.60
2023-05-18T07:24:23.060Z,11.70
2023-05-18T07:27:10.292Z,11.70
2023-05-18T07:29:57.448Z,11.80
2023-05-18T07:32:45.484Z,11.80
2023-05-18T07:35:33.588Z,11.80
2023-05-18T07:38:20.962Z,12.00
2023-05-18T07:41:08.180Z,12.10
2023-05-18T07:43:55.372Z,12.10
2023-05-18T07:46:43.226Z,12.30
2023-05-18T07:49:30.424Z,12.50
2023-05-18T07:52:17.763Z,12.20
2023-05-18T07:55:05.416Z,12.30
2023-05-18T07:57:52.783Z,12.30
2023-05-18T08:00:40.102Z,12.30
2023-05-18T08:03:27.407Z,12.40
2023-05-18T08:06:14.622Z,12.60
2023-05-18T08:09:01.943Z,12.70
2023-05-18T08:11:51.040Z,12.90
2023-05-18T08:14:38.339Z,13.10
2023-05-18T08:17:26.194Z,13.10
2023-05-18T08:20:13.678Z,13.20
2023-05-18T08:23:00.876Z,13.20
2023-05-18T08:25:48.283Z,13.20
2023-05-18T08:28:35.446Z,13.20
2023-05-18T08:31:22.745Z,13.30
2023-05-18T08:34:10.053Z,13.20
2023-05-18T08:36:57.230Z,13.50
2023-05-18T08:39:46.220Z,13.80
2023-05-18T08:42:50.338Z,13.90
2023-05-18T08:45:48.046Z,14.10
2023-05-18T08:48:37.580Z,14.00
2023-05-18T08:51:28.978Z,13.90
2023-05-18T08:54:21.268Z,14.10
2023-05-18T08:57:11.598Z,14.20
2023-05-18T09:00:01.103Z,14.30
2023-05-18T09:02:49.168Z,14.60
2023-05-18T09:05:36.851Z,14.80
2023-05-18T09:08:24.470Z,14.80
2023-05-18T09:11:13.420Z,14.80
2023-05-18T09:14:01.029Z,14.90
2023-05-18T09:16:48.391Z,14.90
2023-05-18T09:19:35.978Z,15.10
2023-05-18T09:22:23.207Z,15.30
2023-05-18T09:25:11.102Z,15.20
2023-05-18T09:27:58.393Z,15.20
2023-05-18T09:30:45.752Z,15.00
2023-05-18T09:33:35.405Z,15.00
2023-05-18T09:36:29.178Z,15.00
2023-05-18T09:39:16.547Z,15.20
2023-05-18T09:42:04.600Z,15.40
2023-05-18T09:44:51.735Z,15.20
2023-05-18T09:47:39.048Z,15.30
2023-05-18T09:50:26.647Z,15.40
2023-05-18T09:53:14.767Z,15.50
2023-05-18T09:56:07.232Z,15.40
2023-05-18T09:58:55.216Z,15.40
2023-05-18T10:02:02.684Z,15.60
2023-05-18T10:04:50.422Z,15.30
2023-05-18T10:07:37.796Z,15.50
2023-05-18T10:10:29.234Z,15.50
2023-05-18T10:13:20.081Z,15.60
2023-05-18T10:16:08.999Z,15.40
2023-05-18T10:18:57.662Z,15.60
2023-05-18T10:21:45.194Z,15.80
2023-05-18T10:24:36.273Z,15.70
2023-05-18T10:27:28.276Z,15.70
2023-05-18T10:30:17.833Z,15.80
2023-05-18T10:33:11.435Z,15.80
2023-05-18T10:36:06.380Z,16.10
2023-05-18T10:38:54.704Z,16.50
2023-05-18T10:41:44.337Z,16.70
2023-05-18T10:44:32.417Z,16.90
2023-05-18T10:47:20.856Z,17.10
2023-05-18T10:50:09.444Z,17.10
2023-05-18T10:52:59.418Z,17.10
2023-05-18T10:55:48.853Z,17.00
2023-05-18T10:58:38.658Z,17.10
2023-05-18T11:01:26.225Z,17.10
2023-05-18T11:04:13.625Z,17.30
2023-05-18T11:07:02.434Z,17.30
2023-05-18T11:09:49.871Z,17.40
2023-05-18T11:12:40.223Z,17.50
2023-05-18T11:15:56.123Z,17.70
2023-05-18T11:18:51.539Z,18.00
2023-05-18T11:21:41.789Z,18.10
2023-05-18T11:24:32.954Z,18.40
2023-05-18T11:27:22.184Z,18.80
2023-05-18T11:30:27.598Z,18.70
2023-05-18T11:33:17.778Z,18.40
2023-05-18T11:36:09.630Z,18.30
2023-05-18T11:39:07.161Z,18.50
2023-05-18T11:42:02.775Z,18.60
2023-05-18T11:44:57.025Z,18.60
2023-05-18T11:47:44.306Z,19.00
2023-05-18T11:50:33.024Z,19.00
2023-05-18T11:53:26.420Z,19.30
2023-05-18T11:56:13.699Z,19.50
2023-05-18T11:59:14.527Z,19.80
2023-05-18T12:02:03.906Z,20.00
2023-05-18T12:04:54.223Z,20.10
2023-05-18T12:07:41.961Z,20.20
2023-05-18T12:10:30.280Z,20.60
2023-05-18T12:13:17.973Z,20.90
2023-05-18T12:16:06.590Z,20.90
2023-05-18T12:18:54.024Z,20.80
2023-05-18T12:21:41.237Z,21.00
2023-05-18T12:24:29.481Z,20.80
2023-05-18T12:27:16.817Z,20.60
2023-05-18T12:30:04.364Z,20.70
2023-05-18T12:32:54.110Z,20.80
2023-05-18T12:35:41.461Z,21.00
2023-05-18T12:38:29.098Z,20.70
2023-05-18T12:41:26.718Z,20.70
2023-05-18T12:44:14.622Z,20.60
2023-05-18T12:47:02.618Z,20.60
2023-05-18T12:49:50.295Z,20.60
2023-05-18T12:52:37.636Z,20.30
2023-05-18T12:55:25.644Z,20.30
2023-05-18T12:58:16.917Z,20.00
2023-05-18T13:01:11.538Z,19.90
2023-05-18T13:03:59.233Z,19.70
2023-05-18T13:06:46.760Z,19.60
2023-05-18T13:09:33.983Z,19.50
2023-05-18T13:12:36.445Z,19.10
2023-05-18T13:15:24.571Z,19.30
2023-05-18T13:18:12.234Z,18.90
2023-05-18T13:20:59.711Z,18.50
2023-05-18T13:23:46.962Z,18.30
2023-05-18T13:26:34.260Z,18.00
2023-05-18T13:29:21.542Z,17.60
2023-05-18T13:32:12.286Z,17.20
2023-05-18T13:34:59.468Z,17.10
2023-05-18T13:37:49.397Z,17.20
2023-05-18T13:40:38.557Z,17.10
2023-05-18T13:43:26.098Z,17.00
2023-05-18T13:46:13.790Z,16.90
2023-05-18T13:49:00.972Z,16.70
2023-05-18T13:51:48.836Z,16.60
2023-05-18T13:54:36.031Z,16.60
2023-05-18T13:57:28.134Z,16.50
2023-05-18T14:00:17.472Z,16.40
2023-05-18T14:03:05.015Z,16.30
2023-05-18T14:05:52.421Z,16.30
2023-05-18T14:08:39.659Z,16.20
2023-05-18T14:11:26.928Z,16.00
2023-05-18T14:14:14.211Z,15.90
2023-05-18T14:17:01.559Z,15.90
2023-05-18T14:19:48.769Z,15.90
2023-05-18T14:22:36.548Z,15.90
2023-05-18T14:25:23.815Z,16.00
2023-05-18T14:28:11.501Z,15.90
2023-05-18T14:30:59.560Z,15.80
2023-05-18T14:33:47.084Z,15.60
2023-05-18T14:36:34.353Z,15.80
2023-05-18T14:39:21.712Z,15.70
2023-05-18T14:42:09.205Z,15.60
2023-05-18T14:44:56.704Z,15.60
2023-05-18T14:47:43.881Z,15.70
2023-05-18T14:50:38.203Z,15.70
2023-05-18T14:53:26.230Z,15.50
2023-05-18T14:56:13.727Z,15.50
2023-05-18T14:59:01.036Z,15.40
2023-05-18T15:01:48.978Z,15.40
2023-05-18T15:04:36.358Z,15.50
2023-05-18T15:07:23.813Z,15.40
2023-05-18T15:10:11.189Z,15.40
2023-05-18T15:12:58.374Z,15.20
2023-05-18T15:15:45.662Z,15.20
2023-05-18T15:18:33.107Z,15.00
2023-05-18T15:21:22.600Z,15.00
2023-05-18T15:24:09.751Z,15.00
2023-05-18T15:26:57.102Z,15.10
2023-05-18T15:29:46.472Z,15.10
2023-05-18T15:32:33.817Z,15.20
2023-05-18T15:36:58.349Z,15.00
2023-05-18T15:39:45.609Z,15.00
2023-05-18T15:42:33.763Z,15.10
2023-05-18T15:45:21.028Z,15.20
2023-05-18T15:48:08.404Z,15.20
2023-05-18T15:50:55.750Z,15.10
2023-05-18T15:53:43.418Z,14.90
2023-05-18T15:56:30.747Z,14.70
2023-05-18T15:59:17.913Z,14.80
2023-05-18T16:02:05.247Z,14.60
2023-05-18T16:04:52.551Z,14.60
2023-05-18T16:07:41.229Z,14.60
2023-05-18T16:10:28.557Z,14.50
2023-05-18T16:13:15.778Z,14.50
2023-05-18T16:16:03.657Z,14.50
2023-05-18T16:18:51.099Z,14.40
2023-05-18T16:21:39.015Z,14.40
2023-05-18T16:24:30.008Z,14.30
2023-05-18T16:27:17.324Z,14.30
2023-05-18T16:30:04.873Z,14.50
2023-05-18T16:32:52.105Z,14.50
2023-05-18T16:35:39.558Z,14.60
2023-05-18T16:38:26.940Z,14.40
2023-05-18T16:41:16.469Z,14.40
2023-05-18T16:44:05.163Z,14.50
2023-05-18T16:46:54.436Z,14.50
2023-05-18T16:49:45.281Z,14.30
2023-05-18T16:52:35.039Z,14.30
2023-05-18T16:55:23.816Z,14.30
2023-05-18T16:58:14.290Z,14.30
2023-05-18T17:01:01.987Z,14.20
2023-05-18T17:03:49.553Z,14.10
2023-05-18T17:06:37.761Z,14.10
2023-05-18T17:09:25.102Z,14.00
2023-05-18T17:12:12.556Z,13.90
2023-05-18T17:15:04.806Z,13.90
2023-05-18T17:17:52.099Z,13.80
2023-05-18T17:20:41.923Z,13.80
2023-05-18T17:23:34.408Z,13.80
2023-05-18T17:26:23.049Z,13.80
2023-05-18T17:29:10.557Z,13.90
2023-05-18T17:31:57.949Z,13.90
2023-05-18T17:34:45.571Z,13.90
2023-05-18T17:37:32.975Z,13.80
2023-05-18T17:40:20.438Z,13.80
2023-05-18T17:43:07.582Z,13.70
2023-05-18T17:45:54.884Z,13.70
2023-05-18T17:48:42.128Z,13.70
2023-05-18T17:51:29.379Z,13.70
2023-05-18T17:54:16.691Z,13.70
2023-05-18T17:57:03.968Z,13.60
2023-05-18T17:59:51.490Z,13.60
2023-05-18T18:02:38.782Z,13.60
2023-05-18T18:05:26.014Z,13.60
2023-05-18T18:08:14.780Z,13.60
2023-05-18T18:11:02.599Z,13.50
2023-05-18T18:13:53.081Z,13.50
2023-05-18T18:16:47.401Z,13.50
2023-05-18T18:19:44.409Z,13.50
2023-05-18T18:22:37.644Z,13.40
2023-05-18T18:25:27.360Z,13.40
2023-05-18T18:28:15.379Z,13.30
2023-05-18T18:31:13.424Z,13.30
2023-05-18T18:34:17.263Z,13.30
2023-05-18T18:37:12.465Z,13.40
2023-05-18T18:40:18.148Z,13.40
2023-05-18T18:43:05.957Z,13.20
2023-05-18T18:45:57.488Z,13.30
2023-05-18T18:48:45.073Z,13.20
2023-05-18T18:51:40.103Z,13.20
2023-05-18T18:54:28.336Z,13.20
2023-05-18T18:57:15.755Z,13.10
2023-05-18T19:00:16.145Z,13.10
2023-05-18T19:03:06.252Z,13.10
2023-05-18T19:05:53.965Z,13.10
2023-05-18T19:08:41.552Z,13.00
2023-05-18T19:11:28.846Z,13.10
2023-05-18T19:14:16.541Z,13.00
2023-05-18T19:17:03.883Z,13.00
2023-05-18T19:19:52.369Z,12.90
2023-05-18T19:22:40.635Z,12.90
2023-05-18T19:25:29.985Z,12.90
2023-05-18T19:28:17.460Z,12.90
2023-05-18T19:31:04.789Z,12.90
2023-05-18T19:33:52.449Z,12.90
2023-05-18T19:36:39.667Z,12.90
2023-05-18T19:39:27.020Z,12.90
2023-05-18T19:42:14.224Z,12.90
2023-05-18T19:45:03.943Z,12.90
2023-05-18T19:47:55.874Z,12.90
2023-05-18T19:50:43.202Z,12.80
2023-05-18T19:53:30.870Z,12.90
2023-05-18T19:56:18.034Z,12.90
2023-05-18T19:59:05.635Z,12.80
2023-05-18T20:01:54.941Z,12.90
2023-05-18T20:04:53.428Z,12.80
2023-05-18T20:07:41.177Z,12.80
2023-05-18T20:10:31.122Z,12.80
2023-05-18T20:13:18.463Z,12.80
2023-05-18T20:16:07.185Z,12.90
2023-05-18T20:18:54.540Z,12.80
2023-05-18T20:21:41.790Z,12.80
2023-05-18T20:24:29.466Z,12.70
2023-05-18T20:27:17.104Z,12.80
2023-05-18T20:30:07.623Z,12.70
2023-05-18T20:32:54.844Z,12.80
2023-05-18T20:35:44.176Z,12.70
2023-05-18T20:38:31.900Z,12.80
2023-05-18T20:41:23.292Z,12.70
2023-05-18T20:44:11.845Z,12.70
2023-05-18T20:47:01.326Z,12.70
2023-05-18T20:49:49.499Z,12.70
2023-05-18T20:52:37.668Z,12.70
2023-05-18T20:55:24.848Z,12.70
2023-05-18T20:58:14.697Z,12.70
2023-05-18T21:01:07.401Z,12.70
2023-05-18T21:03:59.227Z,12.70
2023-05-18T21:06:46.623Z,12.60
2023-05-18T21:09:34.543Z,12.60
2023-05-18T21:12:21.763Z,12.60
2023-05-18T21:15:09.268Z,12.60
2023-05-18T21:17:56.562Z,12.60
2023-05-18T21:20:43.848Z,12.60
2023-05-18T21:23:31.074Z,12.60
2023-05-18T21:26:18.250Z,12.60
2023-05-18T21:29:08.537Z,12.50
2023-05-18T21:31:55.895Z,12.50
2023-05-18T21:34:44.131Z,12.40
2023-05-18T21:37:31.360Z,12.50
2023-05-18T21:40:20.035Z,12.60
2023-05-18T21:43:07.410Z,12.50
2023-05-18T21:46:02.693Z,12.40
2023-05-18T21:48:57.544Z,12.40
2023-05-18T21:52:06.516Z,12.30
2023-05-18T21:54:56.795Z,12.40
2023-05-18T21:57:44.022Z,12.30
2023-05-18T22:00:31.673Z,12.30
2023-05-18T22:03:19.047Z,12.30
2023-05-18T22:06:06.542Z,12.20
2023-05-18T22:08:53.741Z,12.30
2023-05-18T22:11:41.014Z,12.30
2023-05-18T22:14:28.203Z,12.30
2023-05-18T22:17:16.677Z,12.20
2023-05-18T22:20:09.090Z,12.20
2023-05-18T22:22:56.336Z,12.20
2023-05-18T22:25:43.545Z,12.30
2023-05-18T22:28:31.075Z,12.20
2023-05-18T22:31:18.249Z,12.20
2023-05-18T22:34:06.080Z,12.20
2023-05-18T22:36:53.454Z,12.10
2023-05-18T22:39:40.975Z,12.20
2023-05-18T22:42:28.139Z,12.10
2023-05-18T22:45:15.366Z,12.10
2023-05-18T22:48:02.834Z,12.10
2023-05-18T22:50:50.180Z,12.10
2023-05-18T22:53:37.617Z,12.00
2023-05-18T22:56:24.893Z,12.00
2023-05-18T22:59:12.092Z,12.00
2023-05-18T23:01:59.309Z,12.00
2023-05-18T23:04:46.546Z,11.90
2023-05-18T23:07:36.259Z,11.90
2023-05-18T23:10:26.560Z,11.90
2023-05-18T23:13:17.009Z,11.90
2023-05-18T23:16:05.978Z,11.90
2023-05-18T23:18:53.768Z,11.80
2023-05-18T23:21:41.723Z,11.90
2023-05-18T23:24:28.916Z,11.80
2023-05-18T23:27:19.398Z,11.80
2023-05-18T23:30:07.399Z,11.80
2023-05-18T23:32:56.719Z,11.80
2023-05-18T23:35:47.393Z,11.70
2023-05-18T23:38:37.805Z,11.70
2023-05-18T23:41:30.162Z,11.70
2023-05-18T23:44:17.719Z,11.70
2023-05-18T23:47:07.081Z,11.60
2023-05-18T23:49:55.540Z,11.60
2023-05-18T23:52:45.780Z,11.60
2023-05-18T23:55:36.813Z,11.60
2023-05-18T23:58:27.580Z,11.60
